createdAt,value
2023-03-10T00:01:29.676Z,96090.91
2023-03-10T00:04:00.980Z,96079.91
2023-03-10T00:06:32.032Z,96073.41
2023-03-10T00:09:00.585Z,96067.56
2023-03-10T00:11:29.307Z,96083.28
2023-03-10T00:13:57.494Z,96073.06
2023-03-10T00:16:27.608Z,96065.00
2023-03-10T00:18:56.309Z,96075.91
2023-03-10T00:21:28.066Z,96076.59
2023-03-10T00:23:57.126Z,96078.47
2023-03-10T00:26:28.065Z,96073.41
2023-03-10T00:28:57.425Z,96077.03
2023-03-10T00:31:28.052Z,96077.16
2023-03-10T00:33:57.642Z,96076.56
2023-03-10T00:36:29.250Z,96074.69
2023-03-10T00:39:00.885Z,96071.31
2023-03-10T00:41:31.308Z,96072.88
2023-03-10T00:44:00.103Z,96078.84
2023-03-10T00:46:30.088Z,96071.47
2023-03-10T00:48:58.592Z,96071.84
2023-03-10T00:51:28.492Z,96079.59
2023-03-10T00:53:57.033Z,96065.97
2023-03-10T00:56:27.528Z,96070.09
2023-03-10T00:58:57.947Z,96069.34
2023-03-10T01:01:28.088Z,96065.13
2023-03-10T01:03:58.469Z,96057.31
2023-03-10T01:06:28.877Z,96055.56
2023-03-10T01:08:57.230Z,96046.00
2023-03-10T01:11:27.375Z,96046.78
2023-03-10T01:13:58.348Z,96042.38
2023-03-10T01:16:27.308Z,96025.97
2023-03-10T01:18:55.482Z,96023.19
2023-03-10T01:21:26.106Z,96019.72
2023-03-10T01:23:55.913Z,96018.97
2023-03-10T01:26:24.713Z,96007.00
2023-03-10T01:28:52.960Z,96009.72
2023-03-10T01:31:21.345Z,96005.47
2023-03-10T01:33:49.843Z,96006.38
2023-03-10T01:36:20.002Z,95991.84
2023-03-10T01:38:48.746Z,95984.97
2023-03-10T01:41:18.627Z,95980.03
2023-03-10T01:43:49.520Z,95974.16
2023-03-10T01:46:37.245Z,95970.84
2023-03-10T01:49:10.965Z,95966.78
2023-03-10T01:51:41.030Z,95960.00
2023-03-10T01:54:17.855Z,95943.16
2023-03-10T01:56:49.211Z,95942.75
2023-03-10T01:59:17.804Z,95936.66
2023-03-10T02:01:47.645Z,95933.50
2023-03-10T02:04:19.410Z,95919.78
2023-03-10T02:06:49.805Z,95923.25
2023-03-10T02:09:20.028Z,95922.91
2023-03-10T02:11:51.368Z,95915.16
2023-03-10T02:14:21.055Z,95907.63
2023-03-10T02:16:49.455Z,95895.28
2023-03-10T02:19:31.259Z,95901.69
2023-03-10T02:22:06.626Z,95896.56
2023-03-10T02:24:43.380Z,95899.59
2023-03-10T02:27:23.001Z,95892.22
2023-03-10T02:29:59.683Z,95889.50
2023-03-10T02:32:32.042Z,95879.25
2023-03-10T02:35:00.685Z,95881.88
2023-03-10T02:37:31.739Z,95866.38
2023-03-10T02:40:00.630Z,95856.81
2023-03-10T02:42:34.154Z,95845.53
2023-03-10T02:45:06.377Z,95849.72
2023-03-10T02:47:35.431Z,95852.88
2023-03-10T02:50:03.766Z,95850.25
2023-03-10T02:52:41.697Z,95848.25
2023-03-10T02:55:16.334Z,95847.53
2023-03-10T02:57:46.407Z,95843.63
2023-03-10T03:00:15.628Z,95840.63
2023-03-10T03:02:44.075Z,95834.16
2023-03-10T03:05:12.497Z,95838.34
2023-03-10T03:07:40.862Z,95830.63
2023-03-10T03:10:10.384Z,95820.41
2023-03-10T03:12:38.645Z,95828.13
2023-03-10T03:15:09.762Z,95824.91
2023-03-10T03:17:38.085Z,95829.09
2023-03-10T03:20:12.694Z,95843.56
2023-03-10T03:22:41.411Z,95832.81
2023-03-10T03:25:11.570Z,95830.00
2023-03-10T03:27:40.223Z,95839.41
2023-03-10T03:30:13.299Z,95847.19
2023-03-10T03:32:42.003Z,95849.94
2023-03-10T03:35:12.181Z,95839.31
2023-03-10T03:37:40.604Z,95854.22
2023-03-10T03:40:13.434Z,95855.03
2023-03-10T03:42:42.173Z,95845.72
2023-03-10T03:45:17.242Z,95839.31
2023-03-10T03:47:46.509Z,95847.66
2023-03-10T03:50:16.039Z,95856.16
2023-03-10T03:52:45.442Z,95856.28
2023-03-10T03:55:15.982Z,95860.72
2023-03-10T03:57:45.053Z,95841.44
2023-03-10T04:00:18.812Z,95849.09
2023-03-10T04:02:47.320Z,95855.03
2023-03-10T04:05:16.247Z,95850.72
2023-03-10T04:07:45.963Z,95860.19
2023-03-10T04:10:17.528Z,95854.44
2023-03-10T04:12:45.943Z,95854.38
2023-03-10T04:15:16.128Z,95846.84
2023-03-10T04:17:44.472Z,95837.63
2023-03-10T04:20:14.729Z,95839.94
2023-03-10T04:22:43.894Z,95835.47
2023-03-10T04:25:13.968Z,95837.34
2023-03-10T04:27:42.372Z,95839.53
2023-03-10T04:30:13.739Z,95839.47
2023-03-10T04:32:43.653Z,95842.50
2023-03-10T04:35:14.672Z,95833.16
2023-03-10T04:37:45.190Z,95840.53
2023-03-10T04:40:15.506Z,95835.22
2023-03-10T04:42:44.318Z,95847.72
2023-03-10T04:45:13.617Z,95843.31
2023-03-10T04:47:43.539Z,95832.56
2023-03-10T04:50:17.584Z,95837.97
2023-03-10T04:52:46.245Z,95834.50
2023-03-10T04:55:14.986Z,95831.38
2023-03-10T04:57:43.800Z,95831.69
2023-03-10T05:00:14.444Z,95833.34
2023-03-10T05:02:44.420Z,95833.25
2023-03-10T05:05:13.479Z,95825.28
2023-03-10T05:07:42.032Z,95831.72
2023-03-10T05:10:11.892Z,95825.63
2023-03-10T05:12:42.876Z,95823.78
2023-03-10T05:15:12.067Z,95832.53
2023-03-10T05:17:40.301Z,95831.19
2023-03-10T05:20:11.694Z,95830.44
2023-03-10T05:22:40.460Z,95823.06
2023-03-10T05:25:10.264Z,95817.66
2023-03-10T05:27:40.287Z,95819.09
2023-03-10T05:30:10.404Z,95817.56
2023-03-10T05:32:39.182Z,95816.91
2023-03-10T05:35:10.287Z,95820.38
2023-03-10T05:37:39.536Z,95821.97
2023-03-10T05:40:09.677Z,95825.41
2023-03-10T05:42:38.004Z,95828.81
2023-03-10T05:45:07.303Z,95820.13
2023-03-10T05:47:36.193Z,95810.91
2023-03-10T05:50:04.863Z,95813.13
2023-03-10T05:52:38.252Z,95809.84
2023-03-10T05:55:08.313Z,95806.63
2023-03-10T05:57:36.499Z,95816.44
2023-03-10T06:00:05.999Z,95789.38
2023-03-10T06:02:34.274Z,95785.50
2023-03-10T06:05:02.841Z,95778.66
2023-03-10T06:07:31.252Z,95783.63
2023-03-10T06:10:01.366Z,95783.31
2023-03-10T06:12:29.648Z,95787.03
2023-03-10T06:14:58.155Z,95781.75
2023-03-10T06:17:26.523Z,95793.31
2023-03-10T06:19:54.770Z,95782.94
2023-03-10T06:22:23.286Z,95784.03
2023-03-10T06:24:51.636Z,95782.78
2023-03-10T06:27:21.857Z,95790.22
2023-03-10T06:29:50.555Z,95778.75
2023-03-10T06:32:19.542Z,95771.63
2023-03-10T06:34:47.952Z,95784.13
2023-03-10T06:37:17.476Z,95783.69
2023-03-10T06:39:45.625Z,95793.59
2023-03-10T06:42:14.091Z,95791.69
2023-03-10T06:44:44.311Z,95785.50
2023-03-10T06:47:12.552Z,95788.63
2023-03-10T06:49:41.253Z,95789.94
2023-03-10T06:52:09.724Z,95776.22
2023-03-10T06:54:38.423Z,95778.59
2023-03-10T06:57:07.218Z,95780.50
2023-03-10T06:59:35.695Z,95775.31
2023-03-10T07:02:06.005Z,95777.72
2023-03-10T07:04:34.624Z,95766.19
2023-03-10T07:07:03.306Z,95769.75
2023-03-10T07:09:31.583Z,95770.75
2023-03-10T07:12:01.107Z,95769.16
2023-03-10T07:14:29.690Z,95784.47
2023-03-10T07:16:58.947Z,95785.78
2023-03-10T07:19:28.893Z,95781.47
2023-03-10T07:21:57.096Z,95778.47
2023-03-10T07:24:25.760Z,95786.56
2023-03-10T07:26:54.658Z,95771.38
2023-03-10T07:29:22.749Z,95775.06
2023-03-10T07:31:51.017Z,95774.31
2023-03-10T07:34:19.298Z,95777.44
2023-03-10T07:36:49.821Z,95773.78
2023-03-10T07:39:18.645Z,95771.16
2023-03-10T07:41:47.225Z,95766.41
2023-03-10T07:44:15.888Z,95773.31
2023-03-10T07:46:44.396Z,95773.41
2023-03-10T07:49:13.294Z,95770.94
2023-03-10T07:51:41.811Z,95762.34
2023-03-10T07:54:14.595Z,95760.41
2023-03-10T07:56:42.863Z,95751.38
2023-03-10T07:59:11.627Z,95760.66
2023-03-10T08:01:40.032Z,95757.09
2023-03-10T08:04:09.136Z,95756.41
2023-03-10T08:06:38.161Z,95749.47
2023-03-10T08:09:07.210Z,95747.78
2023-03-10T08:11:37.128Z,95759.88
2023-03-10T08:14:05.908Z,95749.03
2023-03-10T08:16:34.625Z,95755.81
2023-03-10T08:19:03.310Z,95754.09
2023-03-10T08:21:32.035Z,95759.81
2023-03-10T08:24:00.433Z,95757.94
2023-03-10T08:26:28.875Z,95749.91
2023-03-10T08:28:58.569Z,95755.25
2023-03-10T08:31:27.150Z,95755.03
2023-03-10T08:33:57.774Z,95751.50
2023-03-10T08:36:28.360Z,95756.53
2023-03-10T08:38:59.255Z,95768.22
2023-03-10T08:41:29.226Z,95766.63
2023-03-10T08:44:00.035Z,95760.94
2023-03-10T08:46:31.975Z,95766.53
2023-03-10T08:49:01.150Z,95758.59
2023-03-10T08:51:30.231Z,95764.53
2023-03-10T08:53:59.350Z,95767.81
2023-03-10T08:56:28.406Z,95773.69
2023-03-10T08:59:00.740Z,95766.28
2023-03-10T09:01:31.242Z,95781.28
2023-03-10T09:04:00.159Z,95775.69
2023-03-10T09:06:29.047Z,95770.56
2023-03-10T09:08:57.638Z,95785.00
2023-03-10T09:11:29.618Z,95776.50
2023-03-10T09:14:00.628Z,95776.22
2023-03-10T09:16:29.931Z,95777.63
2023-03-10T09:18:59.437Z,95775.53
2023-03-10T09:21:30.681Z,95781.41
2023-03-10T09:24:01.404Z,95769.09
2023-03-10T09:26:31.752Z,95767.13
2023-03-10T09:29:02.496Z,95760.19
2023-03-10T09:31:34.298Z,95754.03
2023-03-10T09:34:03.540Z,95753.91
2023-03-10T09:36:32.132Z,95752.84
2023-03-10T09:39:01.673Z,95742.91
2023-03-10T09:42:08.712Z,95732.41
2023-03-10T09:44:44.373Z,95731.22
2023-03-10T09:47:28.300Z,95729.72
2023-03-10T09:50:16.032Z,95722.66
2023-03-10T09:52:47.960Z,95719.09
2023-03-10T09:55:22.846Z,95716.06
2023-03-10T09:57:54.111Z,95710.00
2023-03-10T10:00:30.034Z,95703.31
2023-03-10T10:03:07.926Z,95697.56
2023-03-10T10:05:39.594Z,95696.53
2023-03-10T10:08:20.268Z,95711.16
2023-03-10T10:10:52.322Z,95708.09
2023-03-10T10:13:23.365Z,95698.75
2023-03-10T10:16:18.243Z,95707.16
2023-03-10T10:18:57.614Z,95708.31
2023-03-10T10:21:42.303Z,95721.50
2023-03-10T10:24:11.555Z,95745.56
2023-03-10T10:26:40.061Z,95739.41
2023-03-10T10:29:17.235Z,95764.53
2023-03-10T10:32:04.754Z,95766.88
2023-03-10T10:34:33.735Z,95766.97
2023-03-10T10:37:02.947Z,95759.66
2023-03-10T10:39:34.908Z,95780.38
2023-03-10T10:42:15.642Z,95784.84
2023-03-10T10:44:45.862Z,95782.38
2023-03-10T10:47:28.704Z,95801.13
2023-03-10T10:50:10.092Z,95809.59
2023-03-10T10:52:38.295Z,95798.34
2023-03-10T10:55:07.864Z,95803.00
2023-03-10T10:57:46.202Z,95800.13
2023-03-10T11:00:27.187Z,95792.44
2023-03-10T11:02:57.646Z,95792.94
2023-03-10T11:05:33.041Z,95788.13
2023-03-10T11:08:19.151Z,95779.50
2023-03-10T11:10:53.039Z,95772.34
2023-03-10T11:13:27.248Z,95786.34
2023-03-10T11:16:02.149Z,95795.09
2023-03-10T11:18:37.787Z,95782.00
2023-03-10T11:21:14.114Z,95781.28
2023-03-10T11:23:50.870Z,95790.38
2023-03-10T11:26:34.614Z,95783.97
2023-03-10T11:29:10.004Z,95784.06
2023-03-10T11:31:48.188Z,95780.50
2023-03-10T11:34:25.856Z,95770.94
2023-03-10T11:37:03.553Z,95752.50
2023-03-10T11:39:43.733Z,95749.28
2023-03-10T11:42:19.320Z,95756.19
2023-03-10T11:44:59.617Z,95756.81
2023-03-10T11:47:44.058Z,95747.19
2023-03-10T11:50:30.661Z,95746.81
2023-03-10T11:53:03.965Z,95743.56
2023-03-10T11:55:33.925Z,95741.66
2023-03-10T11:58:05.430Z,95743.72
2023-03-10T12:00:39.847Z,95730.94
2023-03-10T12:03:17.160Z,95729.72
2023-03-10T12:05:52.422Z,95729.97
2023-03-10T12:08:24.348Z,95723.53
2023-03-10T12:10:55.795Z,95708.41
2023-03-10T12:13:27.141Z,95727.59
2023-03-10T12:16:00.008Z,95710.13
2023-03-10T12:18:29.631Z,95700.47
2023-03-10T12:21:28.431Z,95708.94
2023-03-10T12:23:58.354Z,95708.72
2023-03-10T12:27:05.300Z,95711.91
2023-03-10T12:29:37.569Z,95710.56
2023-03-10T12:32:06.955Z,95719.25
2023-03-10T12:34:35.632Z,95702.16
2023-03-10T12:37:11.437Z,95704.91
2023-03-10T12:39:44.116Z,95705.66
2023-03-10T12:42:35.136Z,95710.03
2023-03-10T12:45:17.382Z,95693.19
2023-03-10T12:48:01.927Z,95694.75
2023-03-10T12:50:38.504Z,95691.44
2023-03-10T12:53:27.285Z,95706.91
2023-03-10T12:56:20.579Z,95680.03
2023-03-10T12:58:55.234Z,95658.94
2023-03-10T13:01:27.058Z,95671.28
2023-03-10T13:03:57.122Z,95671.00
2023-03-10T13:06:30.926Z,95685.53
2023-03-10T13:09:10.836Z,95684.41
2023-03-10T13:11:43.195Z,95687.78
2023-03-10T13:14:14.861Z,95688.13
2023-03-10T13:16:43.791Z,95679.69
2023-03-10T13:19:22.017Z,95669.72
2023-03-10T13:21:52.136Z,95675.81
2023-03-10T13:24:26.674Z,95671.38
2023-03-10T13:27:06.355Z,95663.75
2023-03-10T13:29:35.214Z,95670.09
2023-03-10T13:32:03.552Z,95673.78
2023-03-10T13:34:33.961Z,95674.00
2023-03-10T13:37:09.112Z,95679.72
2023-03-10T13:39:39.795Z,95656.41
2023-03-10T13:42:28.265Z,95675.53
2023-03-10T13:44:59.907Z,95656.28
2023-03-10T13:47:31.467Z,95667.06
2023-03-10T13:50:03.615Z,95666.91
2023-03-10T13:52:33.435Z,95667.84
2023-03-10T13:55:16.303Z,95658.34
2023-03-10T13:57:47.935Z,95670.06
2023-03-10T14:00:19.668Z,95667.50
2023-03-10T14:02:50.315Z,95664.09
2023-03-10T14:05:41.309Z,95668.50
2023-03-10T14:08:24.655Z,95685.19
2023-03-10T14:10:54.547Z,95690.47
2023-03-10T14:13:46.304Z,95703.13
2023-03-10T14:16:14.866Z,95686.63
2023-03-10T14:18:44.607Z,95691.34
2023-03-10T14:21:34.834Z,95685.63
2023-03-10T14:24:05.361Z,95676.97
2023-03-10T14:26:35.846Z,95679.88
2023-03-10T14:29:11.161Z,95685.50
2023-03-10T14:31:39.504Z,95682.38
2023-03-10T14:34:07.928Z,95689.38
2023-03-10T14:36:36.294Z,95678.22
2023-03-10T14:39:04.896Z,95682.41
2023-03-10T14:41:35.660Z,95683.97
2023-03-10T14:44:04.523Z,95686.56
2023-03-10T14:46:35.476Z,95683.06
2023-03-10T14:49:06.454Z,95690.44
2023-03-10T14:51:42.870Z,95685.50
2023-03-10T14:54:19.008Z,95683.50
2023-03-10T14:56:54.350Z,95684.06
2023-03-10T14:59:25.817Z,95696.06
2023-03-10T15:01:54.387Z,95688.66
2023-03-10T15:04:23.041Z,95689.19
2023-03-10T15:06:51.673Z,95683.97
2023-03-10T15:09:20.390Z,95690.31
2023-03-10T15:11:51.017Z,95699.66
2023-03-10T15:14:20.874Z,95702.50
2023-03-10T15:16:49.423Z,95705.50
2023-03-10T15:19:24.631Z,95703.38
2023-03-10T15:21:53.768Z,95704.34
2023-03-10T15:24:22.451Z,95708.00
2023-03-10T15:26:52.629Z,95707.59
2023-03-10T15:29:22.673Z,95720.41
2023-03-10T15:31:52.547Z,95735.38
2023-03-10T15:34:22.496Z,95728.22
2023-03-10T15:36:51.404Z,95725.66
2023-03-10T15:39:31.156Z,95728.81
2023-03-10T15:42:02.212Z,95746.03
2023-03-10T15:44:30.661Z,95737.59
2023-03-10T15:46:59.274Z,95753.16
2023-03-10T15:49:27.855Z,95765.69
2023-03-10T15:51:56.341Z,95767.75
2023-03-10T15:54:25.168Z,95769.47
2023-03-10T15:56:54.134Z,95772.59
2023-03-10T15:59:23.846Z,95766.22
2023-03-10T16:01:52.915Z,95764.97
2023-03-10T16:04:22.120Z,95759.09
2023-03-10T16:06:50.540Z,95751.72
2023-03-10T16:09:19.016Z,95762.88
2023-03-10T16:11:47.737Z,95769.22
2023-03-10T16:14:16.697Z,95763.44
2023-03-10T16:16:46.925Z,95755.69
2023-03-10T16:19:15.195Z,95770.72
2023-03-10T16:21:45.153Z,95772.34
2023-03-10T16:24:14.877Z,95782.78
2023-03-10T16:26:44.771Z,95779.16
2023-03-10T16:29:13.609Z,95780.47
2023-03-10T16:31:43.294Z,95784.00
2023-03-10T16:34:13.192Z,95798.97
2023-03-10T16:36:43.068Z,95780.16
2023-03-10T16:39:13.261Z,95800.16
2023-03-10T16:41:41.923Z,95798.16
2023-03-10T16:44:15.515Z,95806.63
2023-03-10T16:46:44.210Z,95802.44
2023-03-10T16:49:24.256Z,95819.59
2023-03-10T16:51:52.646Z,95824.69
2023-03-10T16:54:23.273Z,95813.88
2023-03-10T16:56:57.951Z,95829.41
2023-03-10T16:59:26.945Z,95812.09
2023-03-10T17:01:55.429Z,95818.09
2023-03-10T17:04:25.867Z,95826.94
2023-03-10T17:06:54.207Z,95830.47
2023-03-10T17:09:22.961Z,95832.50
2023-03-10T17:11:55.272Z,95841.00
2023-03-10T17:14:24.323Z,95839.13
2023-03-10T17:16:53.261Z,95849.28
2023-03-10T17:19:28.933Z,95860.00
2023-03-10T17:22:01.414Z,95865.22
2023-03-10T17:24:39.131Z,95856.34
2023-03-10T17:27:07.688Z,95861.59
2023-03-10T17:29:38.116Z,95874.84
2023-03-10T17:32:07.655Z,95868.66
2023-03-10T17:34:35.916Z,95871.50
2023-03-10T17:37:06.444Z,95888.53
2023-03-10T17:39:35.494Z,95890.16
2023-03-10T17:42:04.384Z,95905.38
2023-03-10T17:44:33.178Z,95907.75
2023-03-10T17:47:01.572Z,95915.97
2023-03-10T17:49:29.904Z,95919.34
2023-03-10T17:51:58.983Z,95912.97
2023-03-10T17:54:29.074Z,95916.72
2023-03-10T17:56:57.826Z,95928.88
2023-03-10T17:59:26.627Z,95930.75
2023-03-10T18:01:55.828Z,95923.50
2023-03-10T18:04:29.860Z,95932.19
2023-03-10T18:06:58.613Z,95928.75
2023-03-10T18:09:28.534Z,95930.66
2023-03-10T18:11:58.197Z,95937.03
2023-03-10T18:14:27.193Z,95944.50
2023-03-10T18:16:55.684Z,95955.59
2023-03-10T18:19:24.687Z,95944.09
2023-03-10T18:21:53.590Z,95947.25
2023-03-10T18:24:22.728Z,95941.31
2023-03-10T18:26:52.962Z,95942.28
2023-03-10T18:29:22.348Z,95944.56
2023-03-10T18:31:51.171Z,95943.03
2023-03-10T18:34:22.767Z,95940.50
2023-03-10T18:36:53.051Z,95933.50
2023-03-10T18:39:21.528Z,95938.84
2023-03-10T18:41:54.511Z,95936.28
2023-03-10T18:44:23.109Z,95935.25
2023-03-10T18:46:51.907Z,95939.44
2023-03-10T18:49:31.785Z,95930.00
2023-03-10T18:52:00.198Z,95914.53
2023-03-10T18:54:29.406Z,95915.63
2023-03-10T18:57:01.916Z,95925.44
2023-03-10T18:59:30.528Z,95913.44
2023-03-10T19:01:59.370Z,95911.69
2023-03-10T19:04:30.330Z,95897.19
2023-03-10T19:06:59.202Z,95928.38
2023-03-10T19:09:28.156Z,95915.91
2023-03-10T19:11:57.003Z,95907.63
2023-03-10T19:14:28.141Z,95898.84
2023-03-10T19:16:58.482Z,95902.41
2023-03-10T19:19:27.536Z,95902.78
2023-03-10T19:21:57.439Z,95937.25
2023-03-10T19:24:26.273Z,95919.38
2023-03-10T19:26:54.943Z,95910.75
2023-03-10T19:29:23.841Z,95900.94
2023-03-10T19:31:53.687Z,95906.38
2023-03-10T19:34:22.328Z,95914.13
2023-03-10T19:36:51.196Z,95915.16
2023-03-10T19:39:20.570Z,95912.53
2023-03-10T19:41:48.919Z,95918.81
2023-03-10T19:44:18.449Z,95921.38
2023-03-10T19:46:46.993Z,95925.69
2023-03-10T19:49:17.337Z,95916.44
2023-03-10T19:51:45.872Z,95923.50
2023-03-10T19:54:14.236Z,95915.88
2023-03-10T19:56:43.042Z,95941.59
2023-03-10T19:59:11.618Z,95926.56
2023-03-10T20:01:42.252Z,95922.84
2023-03-10T20:04:11.898Z,95945.69
2023-03-10T20:06:42.220Z,95948.41
2023-03-10T20:09:11.108Z,95957.06
2023-03-10T20:11:40.430Z,95966.50
2023-03-10T20:14:09.482Z,95953.09
2023-03-10T20:16:38.087Z,95953.16
2023-03-10T20:19:07.157Z,95929.75
2023-03-10T20:21:35.794Z,95930.53
2023-03-10T20:24:06.442Z,95942.66
2023-03-10T20:26:35.233Z,95964.66
2023-03-10T20:29:03.927Z,95973.00
2023-03-10T20:31:34.228Z,95966.94
2023-03-10T20:34:02.677Z,95955.16
2023-03-10T20:36:31.015Z,95952.81
2023-03-10T20:38:59.660Z,95942.44
2023-03-10T20:41:29.612Z,95943.09
2023-03-10T20:43:58.531Z,95949.69
2023-03-10T20:46:28.270Z,95975.03
2023-03-10T20:48:58.497Z,95953.88
2023-03-10T20:51:27.339Z,95949.59
2023-03-10T20:53:57.095Z,95948.66
2023-03-10T20:56:25.827Z,95952.28
2023-03-10T20:58:59.765Z,95963.56
2023-03-10T21:01:28.993Z,95971.19
2023-03-10T21:03:58.840Z,95964.53
2023-03-10T21:06:28.810Z,96006.13
2023-03-10T21:08:57.695Z,96032.78
2023-03-10T21:11:26.586Z,96044.09
2023-03-10T21:13:56.812Z,96092.69
2023-03-10T21:16:25.706Z,96121.03
2023-03-10T21:18:54.566Z,96096.25
2023-03-10T21:21:23.704Z,96122.81
2023-03-10T21:23:52.171Z,96125.88
2023-03-10T21:26:22.634Z,96146.53
2023-03-10T21:28:52.055Z,96172.06
2023-03-10T21:31:22.410Z,96168.97
2023-03-10T21:33:51.133Z,96156.25
2023-03-10T21:36:22.722Z,96195.19
2023-03-10T21:38:52.094Z,96177.44
2023-03-10T21:41:22.575Z,96179.09
2023-03-10T21:43:52.056Z,96197.88
2023-03-10T21:46:22.085Z,96214.19
2023-03-10T21:48:51.397Z,96203.09
2023-03-10T21:51:23.247Z,96203.94
2023-03-10T21:53:53.835Z,96229.41
2023-03-10T21:56:23.578Z,96243.16
2023-03-10T21:58:52.225Z,96256.97
2023-03-10T22:01:23.153Z,96266.38
2023-03-10T22:03:52.815Z,96265.78
2023-03-10T22:06:22.235Z,96302.91
2023-03-10T22:08:51.108Z,96268.50
2023-03-10T22:11:19.713Z,96294.72
2023-03-10T22:13:48.505Z,96278.66
2023-03-10T22:16:18.929Z,96296.47
2023-03-10T22:18:49.533Z,96293.03
2023-03-10T22:21:18.796Z,96300.72
2023-03-10T22:23:47.526Z,96323.44
2023-03-10T22:26:16.208Z,96326.09
2023-03-10T22:28:44.607Z,96307.72
2023-03-10T22:31:13.208Z,96327.94
2023-03-10T22:33:41.569Z,96346.47
2023-03-10T22:36:14.493Z,96342.22
2023-03-10T22:38:42.690Z,96369.31
2023-03-10T22:41:12.699Z,96366.91
2023-03-10T22:43:41.067Z,96387.16
2023-03-10T22:46:12.182Z,96392.25
2023-03-10T22:48:40.719Z,96375.25
2023-03-10T22:51:14.746Z,96392.25
2023-03-10T22:53:42.868Z,96415.84
2023-03-10T22:56:11.422Z,96395.59
2023-03-10T22:58:39.900Z,96418.47
2023-03-10T23:01:08.403Z,96410.00
2023-03-10T23:03:37.349Z,96408.31
2023-03-10T23:06:06.623Z,96423.47
2023-03-10T23:08:37.735Z,96425.13
2023-03-10T23:11:10.863Z,96452.28
2023-03-10T23:13:39.413Z,96439.53
2023-03-10T23:16:09.071Z,96450.47
2023-03-10T23:18:37.909Z,96453.03
2023-03-10T23:21:07.251Z,96449.06
2023-03-10T23:23:36.934Z,96473.34
2023-03-10T23:26:06.150Z,96490.31
2023-03-10T23:28:34.316Z,96495.50
2023-03-10T23:31:03.105Z,96503.19
2023-03-10T23:33:31.617Z,96499.81
2023-03-10T23:36:01.055Z,96513.38
2023-03-10T23:38:30.247Z,96544.66
2023-03-10T23:41:01.157Z,96519.28
2023-03-10T23:43:29.305Z,96532.75
2023-03-10T23:45:58.529Z,96545.50
2023-03-10T23:48:26.990Z,96541.41
2023-03-10T23:50:56.429Z,96553.28
2023-03-10T23:53:25.128Z,96550.72
2023-03-10T23:55:57.699Z,96543.13
2023-03-10T23:58:29.315Z,96557.47
